sensor_id;sensor_type;location;lat;lon;timestamp;P1;durP1;ratioP1;P2;durP2;ratioP2
55350;SDS011;62194;49.480;10.986;2022-12-29T00:00:05;3.10;;;1.80;;
55350;SDS011;62194;49.480;10.986;2022-12-29T00:00:12;3.00;;;1.70;;
55350;SDS011;62194;49.480;10.986;2022-12-29T00:00:17;3.05;;;1.80;;
55350;SDS011;62194;49.480;10.986;2022-12-29T00:00:23;2.73;;;1.80;;
55350;SDS011;62194;49.480;10.986;2022-12-29T00:00:30;2.20;;;1.80;;
55350;SDS011;62194;49.480;10.986;2022-12-29T00:00:36;2.37;;;1.90;;
55350;SDS011;62194;49.480;10.986;2022-12-29T00:00:41;2.63;;;2.00;;
55350;SDS011;62194;49.480;10.986;2022-12-29T00:00:46;3.00;;;2.10;;
55350;SDS011;62194;49.480;10.986;2022-12-29T00:00:52;2.87;;;2.10;;
55350;SDS011;62194;49.480;10.986;2022-12-29T00:00:59;3.03;;;2.10;;
55350;SDS011;62194;49.480;10.986;2022-12-29T00:01:05;3.07;;;2.09;;
55350;SDS011;62194;49.480;10.986;2022-12-29T00:01:10;3.17;;;2.03;;
55350;SDS011;62194;49.480;10.986;2022-12-29T00:01:16;2.73;;;1.83;;
55350;SDS011;62194;49.480;10.986;2022-12-29T00:01:21;2.80;;;1.80;;
55350;SDS011;62194;49.480;10.986;2022-12-29T00:01:26;2.50;;;1.70;;
55350;SDS011;62194;49.480;10.986;2022-12-29T00:01:32;2.37;;;1.73;;
55350;SDS011;62194;49.480;10.986;2022-12-29T00:01:38;2.33;;;1.77;;
55350;SDS011;62194;49.480;10.986;2022-12-29T00:01:46;2.42;;;1.80;;
55350;SDS011;62194;49.480;10.986;2022-12-29T00:01:52;2.83;;;1.80;;
55350;SDS011;62194;49.480;10.986;2022-12-29T00:01:57;3.00;;;1.93;;
55350;SDS011;62194;49.480;10.986;2022-12-29T00:02:02;3.10;;;1.90;;
55350;SDS011;62194;49.480;10.986;2022-12-29T00:02:08;3.27;;;1.90;;
55350;SDS011;62194;49.480;10.986;2022-12-29T00:02:14;2.93;;;1.90;;
55350;SDS011;62194;49.480;10.986;2022-12-29T00:02:20;2.84;;;1.90;;
55350;SDS011;62194;49.480;10.986;2022-12-29T00:02:25;2.70;;;1.80;;
55350;SDS011;62194;49.480;10.986;2022-12-29T00:02:34;2.77;;;1.80;;
55350;SDS011;62194;49.480;10.986;2022-12-29T00:02:39;2.67;;;1.70;;
55350;SDS011;62194;49.480;10.986;2022-12-29T00:02:44;2.50;;;1.73;;
55350;SDS011;62194;49.480;10.986;2022-12-29T00:02:49;2.43;;;1.70;;
55350;SDS011;62194;49.480;10.986;2022-12-29T00:02:54;2.40;;;1.77;;
55350;SDS011;62194;49.480;10.986;2022-12-29T00:03:00;2.90;;;1.80;;
55350;SDS011;62194;49.480;10.986;2022-12-29T00:03:05;2.83;;;1.85;;
55350;SDS011;62194;49.480;10.986;2022-12-29T00:03:10;2.70;;;1.80;;
55350;SDS011;62194;49.480;10.986;2022-12-29T00:03:15;2.67;;;1.80;;
55350;SDS011;62194;49.480;10.986;2022-12-29T00:03:21;3.07;;;1.90;;
55350;SDS011;62194;49.480;10.986;2022-12-29T00:03:29;3.22;;;1.90;;
55350;SDS011;62194;49.480;10.986;2022-12-29T00:03:34;2.93;;;1.97;;
55350;SDS011;62194;49.480;10.986;2022-12-29T00:03:39;2.93;;;2.00;;
55350;SDS011;62194;49.480;10.986;2022-12-29T00:03:45;3.00;;;2.00;;
55350;SDS011;62194;49.480;10.986;2022-12-29T00:03:51;2.87;;;1.93;;
55350;SDS011;62194;49.480;10.986;2022-12-29T00:04:02;2.97;;;1.90;;
55350;SDS011;62194;49.480;10.986;2022-12-29T00:04:09;2.96;;;1.94;;
55350;SDS011;62194;49.480;10.986;2022-12-29T00:04:17;2.67;;;1.84;;
55350;SDS011;62194;49.480;10.986;2022-12-29T00:04:23;2.42;;;1.80;;
55350;SDS011;62194;49.480;10.986;2022-12-29T00:04:28;2.30;;;1.80;;
55350;SDS011;62194;49.480;10.986;2022-12-29T00:04:33;2.30;;;1.73;;
55350;SDS011;62194;49.480;10.986;2022-12-29T00:04:39;2.53;;;1.75;;
55350;SDS011;62194;49.480;10.986;2022-12-29T00:04:44;2.73;;;1.80;;
55350;SDS011;62194;49.480;10.986;2022-12-29T00:04:49;3.00;;;1.90;;
55350;SDS011;62194;49.480;10.986;2022-12-29T00:05:01;3.08;;;1.95;;
55350;SDS011;62194;49.480;10.986;2022-12-29T00:05:07;2.97;;;1.96;;
55350;SDS011;62194;49.480;10.986;2022-12-29T00:05:13;2.85;;;1.95;;
55350;SDS011;62194;49.480;10.986;2022-12-29T00:05:18;2.70;;;1.93;;
55350;SDS011;62194;49.480;10.986;2022-12-29T00:05:24;2.40;;;1.90;;
55350;SDS011;62194;49.480;10.986;2022-12-29T00:05:29;2.50;;;1.90;;
55350;SDS011;62194;49.480;10.986;2022-12-29T00:05:37;2.63;;;1.83;;
55350;SDS011;62194;49.480;10.986;2022-12-29T00:05:45;2.50;;;1.83;;
55350;SDS011;62194;49.480;10.986;2022-12-29T00:05:59;2.54;;;1.84;;
55350;SDS011;62194;49.480;10.986;2022-12-29T00:06:05;2.58;;;1.80;;
55350;SDS011;62194;49.480;10.986;2022-12-29T00:06:13;2.60;;;1.80;;
55350;SDS011;62194;49.480;10.986;2022-12-29T00:06:18;2.62;;;1.87;;
55350;SDS011;62194;49.480;10.986;2022-12-29T00:06:24;2.83;;;2.00;;
55350;SDS011;62194;49.480;10.986;2022-12-29T00:06:29;2.83;;;2.00;;
55350;SDS011;62194;49.480;10.986;2022-12-29T00:06:35;2.60;;;1.90;;
55350;SDS011;62194;49.480;10.986;2022-12-29T00:06:49;2.53;;;1.92;;
55350;SDS011;62194;49.480;10.986;2022-12-29T00:06:54;2.40;;;1.85;;
55350;SDS011;62194;49.480;10.986;2022-12-29T00:07:00;2.40;;;1.87;;
55350;SDS011;62194;49.480;10.986;2022-12-29T00:07:05;2.30;;;1.83;;
55350;SDS011;62194;49.480;10.986;2022-12-29T00:07:13;2.72;;;1.80;;
55350;SDS011;62194;49.480;10.986;2022-12-29T00:07:18;2.72;;;1.80;;
55350;SDS011;62194;49.480;10.986;2022-12-29T00:07:23;2.83;;;1.80;;
55350;SDS011;62194;49.480;10.986;2022-12-29T00:07:29;2.70;;;1.77;;
55350;SDS011;62194;49.480;10.986;2022-12-29T00:07:37;2.90;;;1.80;;
55350;SDS011;62194;49.480;10.986;2022-12-29T00:07:42;2.80;;;1.80;;
55350;SDS011;62194;49.480;10.986;2022-12-29T00:07:47;2.78;;;1.80;;
55350;SDS011;62194;49.480;10.986;2022-12-29T00:07:52;2.90;;;1.83;;
55350;SDS011;62194;49.480;10.986;2022-12-29T00:07:58;3.23;;;1.90;;
55350;SDS011;62194;49.480;10.986;2022-12-29T00:08:03;3.37;;;1.90;;
55350;SDS011;62194;49.480;10.986;2022-12-29T00:08:09;3.45;;;2.20;;
55350;SDS011;62194;49.480;10.986;2022-12-29T00:08:14;3.50;;;2.20;;
55350;SDS011;62194;49.480;10.986;2022-12-29T00:08:19;3.40;;;2.22;;
55350;SDS011;62194;49.480;10.986;2022-12-29T00:08:24;3.20;;;2.30;;
55350;SDS011;62194;49.480;10.986;2022-12-29T00:08:44;2.95;;;2.20;;
55350;SDS011;62194;49.480;10.986;2022-12-29T00:08:52;2.80;;;1.97;;
55350;SDS011;62194;49.480;10.986;2022-12-29T00:08:57;2.78;;;1.78;;
55350;SDS011;62194;49.480;10.986;2022-12-29T00:09:03;2.60;;;1.67;;
55350;SDS011;62194;49.480;10.986;2022-12-29T00:09:08;2.63;;;1.70;;
55350;SDS011;62194;49.480;10.986;2022-12-29T00:09:16;2.57;;;1.80;;
55350;SDS011;62194;49.480;10.986;2022-12-29T00:09:21;2.95;;;1.92;;
55350;SDS011;62194;49.480;10.986;2022-12-29T00:09:27;3.00;;;2.00;;
55350;SDS011;62194;49.480;10.986;2022-12-29T00:09:41;3.20;;;2.25;;
55350;SDS011;62194;49.480;10.986;2022-12-29T00:09:46;3.21;;;2.24;;
55350;SDS011;62194;49.480;10.986;2022-12-29T00:09:51;2.90;;;2.20;;
55350;SDS011;62194;49.480;10.986;2022-12-29T00:09:57;3.10;;;2.20;;
55350;SDS011;62194;49.480;10.986;2022-12-29T00:10:08;3.38;;;2.10;;
55350;SDS011;62194;49.480;10.986;2022-12-29T00:10:13;3.20;;;2.00;;
55350;SDS011;62194;49.480;10.986;2022-12-29T00:10:18;3.10;;;1.97;;
55350;SDS011;62194;49.480;10.986;2022-12-29T00:10:24;2.80;;;1.87;;
55350;SDS011;62194;49.480;10.986;2022-12-29T00:10:29;2.42;;;1.90;;
55350;SDS011;62194;49.480;10.986;2022-12-29T00:10:34;2.50;;;2.00;;
55350;SDS011;62194;49.480;10.986;2022-12-29T00:10:39;2.80;;;2.07;;
55350;SDS011;62194;49.480;10.986;2022-12-29T00:10:47;2.80;;;2.00;;
55350;SDS011;62194;49.480;10.986;2022-12-29T00:10:53;2.96;;;2.14;;
55350;SDS011;62194;49.480;10.986;2022-12-29T00:10:59;2.90;;;2.07;;
55350;SDS011;62194;49.480;10.986;2022-12-29T00:11:11;2.70;;;1.92;;
55350;SDS011;62194;49.480;10.986;2022-12-29T00:11:25;2.44;;;1.83;;
55350;SDS011;62194;49.480;10.986;2022-12-29T00:11:31;2.74;;;1.84;;
55350;SDS011;62194;49.480;10.986;2022-12-29T00:11:37;3.03;;;1.90;;
55350;SDS011;62194;49.480;10.986;2022-12-29T00:11:42;3.00;;;2.03;;
55350;SDS011;62194;49.480;10.986;2022-12-29T00:11:48;3.22;;;2.05;;
55350;SDS011;62194;49.480;10.986;2022-12-29T00:11:55;3.27;;;2.07;;
55350;SDS011;62194;49.480;10.986;2022-12-29T00:12:00;3.00;;;2.10;;
55350;SDS011;62194;49.480;10.986;2022-12-29T00:12:06;2.87;;;2.10;;
55350;SDS011;62194;49.480;10.986;2022-12-29T00:12:12;2.80;;;2.00;;
55350;SDS011;62194;49.480;10.986;2022-12-29T00:12:17;3.10;;;2.00;;
55350;SDS011;62194;49.480;10.986;2022-12-29T00:12:22;3.23;;;1.93;;
55350;SDS011;62194;49.480;10.986;2022-12-29T00:12:27;3.33;;;2.00;;
55350;SDS011;62194;49.480;10.986;2022-12-29T00:12:53;3.19;;;1.95;;
55350;SDS011;62194;49.480;10.986;2022-12-29T00:13:17;2.96;;;1.98;;
55350;SDS011;62194;49.480;10.986;2022-12-29T00:13:40;2.72;;;1.99;;
55350;SDS011;62194;49.480;10.986;2022-12-29T00:14:05;2.80;;;1.94;;
55350;SDS011;62194;49.480;10.986;2022-12-29T00:14:32;3.89;;;2.09;;
55350;SDS011;62194;49.480;10.986;2022-12-29T00:14:56;3.15;;;1.86;;
55350;SDS011;62194;49.480;10.986;2022-12-29T00:15:20;2.55;;;1.75;;
55350;SDS011;62194;49.480;10.986;2022-12-29T00:15:44;2.75;;;1.86;;
55350;SDS011;62194;49.480;10.986;2022-12-29T00:15:51;2.87;;;2.00;;
55350;SDS011;62194;49.480;10.986;2022-12-29T00:15:57;3.10;;;2.10;;
55350;SDS011;62194;49.480;10.986;2022-12-29T00:16:02;3.10;;;2.03;;
55350;SDS011;62194;49.480;10.986;2022-12-29T00:16:07;2.45;;;2.03;;
55350;SDS011;62194;49.480;10.986;2022-12-29T00:16:13;2.43;;;2.07;;
55350;SDS011;62194;49.480;10.986;2022-12-29T00:16:18;2.40;;;2.10;;
55350;SDS011;62194;49.480;10.986;2022-12-29T00:16:24;2.35;;;2.00;;
55350;SDS011;62194;49.480;10.986;2022-12-29T00:16:33;2.17;;;1.90;;
55350;SDS011;62194;49.480;10.986;2022-12-29T00:16:42;2.10;;;1.83;;
55350;SDS011;62194;49.480;10.986;2022-12-29T00:16:49;1.97;;;1.60;;
55350;SDS011;62194;49.480;10.986;2022-12-29T00:16:54;2.07;;;1.63;;
55350;SDS011;62194;49.480;10.986;2022-12-29T00:17:00;2.57;;;1.70;;
55350;SDS011;62194;49.480;10.986;2022-12-29T00:17:06;2.50;;;1.63;;
55350;SDS011;62194;49.480;10.986;2022-12-29T00:17:11;2.60;;;1.70;;
55350;SDS011;62194;49.480;10.986;2022-12-29T00:17:17;2.55;;;1.70;;
55350;SDS011;62194;49.480;10.986;2022-12-29T00:17:23;2.70;;;1.73;;
55350;SDS011;62194;49.480;10.986;2022-12-29T00:17:28;2.37;;;1.73;;
55350;SDS011;62194;49.480;10.986;2022-12-29T00:17:33;2.47;;;1.90;;
55350;SDS011;62194;49.480;10.986;2022-12-29T00:17:38;2.67;;;1.90;;
55350;SDS011;62194;49.480;10.986;2022-12-29T00:17:44;2.90;;;2.10;;
55350;SDS011;62194;49.480;10.986;2022-12-29T00:17:49;2.83;;;2.17;;
55350;SDS011;62194;49.480;10.986;2022-12-29T00:17:54;2.90;;;2.10;;
55350;SDS011;62194;49.480;10.986;2022-12-29T00:17:59;3.00;;;2.10;;
55350;SDS011;62194;49.480;10.986;2022-12-29T00:18:05;2.90;;;2.00;;
55350;SDS011;62194;49.480;10.986;2022-12-29T00:18:11;2.87;;;1.90;;
55350;SDS011;62194;49.480;10.986;2022-12-29T00:18:16;2.63;;;1.73;;
55350;SDS011;62194;49.480;10.986;2022-12-29T00:18:21;2.63;;;1.70;;
55350;SDS011;62194;49.480;10.986;2022-12-29T00:18:27;2.40;;;1.70;;
55350;SDS011;62194;49.480;10.986;2022-12-29T00:18:32;2.43;;;1.73;;
55350;SDS011;62194;49.480;10.986;2022-12-29T00:18:37;2.20;;;1.70;;
55350;SDS011;62194;49.480;10.986;2022-12-29T00:18:42;2.33;;;1.83;;
55350;SDS011;62194;49.480;10.986;2022-12-29T00:18:48;2.80;;;2.10;;
55350;SDS011;62194;49.480;10.986;2022-12-29T00:18:53;2.80;;;2.10;;
55350;SDS011;62194;49.480;10.986;2022-12-29T00:18:59;2.90;;;2.13;;
55350;SDS011;62194;49.480;10.986;2022-12-29T00:19:05;3.13;;;2.07;;
55350;SDS011;62194;49.480;10.986;2022-12-29T00:19:11;3.10;;;2.00;;
55350;SDS011;62194;49.480;10.986;2022-12-29T00:19:35;2.69;;;1.89;;
55350;SDS011;62194;49.480;10.986;2022-12-29T00:19:59;3.01;;;1.88;;
55350;SDS011;62194;49.480;10.986;2022-12-29T00:20:28;3.11;;;1.91;;
55350;SDS011;62194;49.480;10.986;2022-12-29T00:20:54;2.65;;;1.88;;
55350;SDS011;62194;49.480;10.986;2022-12-29T00:21:20;2.39;;;1.79;;
55350;SDS011;62194;49.480;10.986;2022-12-29T00:21:45;2.67;;;1.70;;
55350;SDS011;62194;49.480;10.986;2022-12-29T00:22:10;3.08;;;1.79;;
55350;SDS011;62194;49.480;10.986;2022-12-29T00:22:45;2.72;;;1.76;;
55350;SDS011;62194;49.480;10.986;2022-12-29T00:23:09;2.41;;;1.76;;
55350;SDS011;62194;49.480;10.986;2022-12-29T00:23:33;3.10;;;1.96;;
55350;SDS011;62194;49.480;10.986;2022-12-29T00:24:02;3.13;;;1.99;;
55350;SDS011;62194;49.480;10.986;2022-12-29T00:24:27;2.38;;;1.64;;
55350;SDS011;62194;49.480;10.986;2022-12-29T00:24:32;2.85;;;1.80;;
55350;SDS011;62194;49.480;10.986;2022-12-29T00:24:56;3.16;;;1.92;;
55350;SDS011;62194;49.480;10.986;2022-12-29T00:25:14;4.03;;;1.96;;
55350;SDS011;62194;49.480;10.986;2022-12-29T00:25:38;3.92;;;2.08;;
55350;SDS011;62194;49.480;10.986;2022-12-29T00:26:08;3.75;;;2.25;;
55350;SDS011;62194;49.480;10.986;2022-12-29T00:26:36;3.53;;;2.13;;
55350;SDS011;62194;49.480;10.986;2022-12-29T00:27:30;3.05;;;2.09;;
55350;SDS011;62194;49.480;10.986;2022-12-29T00:27:55;3.29;;;2.15;;
55350;SDS011;62194;49.480;10.986;2022-12-29T00:28:19;3.55;;;2.25;;
55350;SDS011;62194;49.480;10.986;2022-12-29T00:28:43;3.83;;;2.44;;
55350;SDS011;62194;49.480;10.986;2022-12-29T00:29:07;3.67;;;2.10;;
55350;SDS011;62194;49.480;10.986;2022-12-29T00:29:31;4.14;;;2.19;;
55350;SDS011;62194;49.480;10.986;2022-12-29T00:29:58;3.49;;;2.38;;
55350;SDS011;62194;49.480;10.986;2022-12-29T00:30:23;3.70;;;2.34;;
55350;SDS011;62194;49.480;10.986;2022-12-29T00:30:47;3.70;;;2.08;;
55350;SDS011;62194;49.480;10.986;2022-12-29T00:31:14;3.15;;;1.98;;
55350;SDS011;62194;49.480;10.986;2022-12-29T00:31:38;3.10;;;1.92;;
55350;SDS011;62194;49.480;10.986;2022-12-29T00:32:03;3.84;;;2.20;;
55350;SDS011;62194;49.480;10.986;2022-12-29T00:32:27;3.39;;;2.19;;
55350;SDS011;62194;49.480;10.986;2022-12-29T00:32:51;3.35;;;2.29;;
55350;SDS011;62194;49.480;10.986;2022-12-29T00:33:17;4.16;;;2.44;;
55350;SDS011;62194;49.480;10.986;2022-12-29T00:33:42;4.00;;;2.35;;
55350;SDS011;62194;49.480;10.986;2022-12-29T00:34:07;4.07;;;2.74;;
55350;SDS011;62194;49.480;10.986;2022-12-29T00:34:34;3.94;;;2.61;;
55350;SDS011;62194;49.480;10.986;2022-12-29T00:34:58;3.78;;;2.26;;
55350;SDS011;62194;49.480;10.986;2022-12-29T00:35:17;3.39;;;2.24;;
55350;SDS011;62194;49.480;10.986;2022-12-29T00:35:31;2.96;;;2.16;;
55350;SDS011;62194;49.480;10.986;2022-12-29T00:35:52;3.28;;;2.17;;
55350;SDS011;62194;49.480;10.986;2022-12-29T00:36:43;3.72;;;2.06;;
55350;SDS011;62194;49.480;10.986;2022-12-29T00:36:49;4.10;;;1.94;;
55350;SDS011;62194;49.480;10.986;2022-12-29T00:36:54;3.92;;;1.90;;
55350;SDS011;62194;49.480;10.986;2022-12-29T00:37:03;4.20;;;1.90;;
55350;SDS011;62194;49.480;10.986;2022-12-29T00:37:08;4.10;;;1.80;;
55350;SDS011;62194;49.480;10.986;2022-12-29T00:37:14;3.23;;;1.77;;
55350;SDS011;62194;49.480;10.986;2022-12-29T00:37:19;3.75;;;1.95;;
55350;SDS011;62194;49.480;10.986;2022-12-29T00:37:47;3.96;;;2.20;;
55350;SDS011;62194;49.480;10.986;2022-12-29T00:38:11;4.15;;;2.38;;
55350;SDS011;62194;49.480;10.986;2022-12-29T00:38:37;4.57;;;2.39;;
55350;SDS011;62194;49.480;10.986;2022-12-29T00:39:07;3.71;;;2.21;;
55350;SDS011;62194;49.480;10.986;2022-12-29T00:39:34;3.28;;;2.15;;
55350;SDS011;62194;49.480;10.986;2022-12-29T00:39:58;3.66;;;2.16;;
55350;SDS011;62194;49.480;10.986;2022-12-29T00:40:25;3.39;;;1.96;;
55350;SDS011;62194;49.480;10.986;2022-12-29T00:40:49;3.47;;;2.03;;
55350;SDS011;62194;49.480;10.986;2022-12-29T00:41:12;3.61;;;2.03;;
55350;SDS011;62194;49.480;10.986;2022-12-29T00:41:36;3.56;;;2.26;;
55350;SDS011;62194;49.480;10.986;2022-12-29T00:42:04;3.78;;;2.08;;
55350;SDS011;62194;49.480;10.986;2022-12-29T00:42:29;3.90;;;2.00;;
55350;SDS011;62194;49.480;10.986;2022-12-29T00:42:53;4.01;;;2.08;;
55350;SDS011;62194;49.480;10.986;2022-12-29T00:43:20;4.35;;;2.16;;
55350;SDS011;62194;49.480;10.986;2022-12-29T00:43:47;3.54;;;1.89;;
55350;SDS011;62194;49.480;10.986;2022-12-29T00:44:12;4.01;;;2.09;;
55350;SDS011;62194;49.480;10.986;2022-12-29T00:44:18;5.90;;;2.46;;
55350;SDS011;62194;49.480;10.986;2022-12-29T00:44:23;6.70;;;2.70;;
55350;SDS011;62194;49.480;10.986;2022-12-29T00:44:28;6.30;;;2.70;;
55350;SDS011;62194;49.480;10.986;2022-12-29T00:44:34;6.40;;;2.73;;
55350;SDS011;62194;49.480;10.986;2022-12-29T00:44:39;5.70;;;2.80;;
55350;SDS011;62194;49.480;10.986;2022-12-29T00:44:44;5.40;;;2.70;;
55350;SDS011;62194;49.480;10.986;2022-12-29T00:44:49;5.00;;;2.63;;
55350;SDS011;62194;49.480;10.986;2022-12-29T00:44:55;5.50;;;2.60;;
55350;SDS011;62194;49.480;10.986;2022-12-29T00:45:00;5.72;;;2.65;;
55350;SDS011;62194;49.480;10.986;2022-12-29T00:45:05;5.10;;;2.53;;
55350;SDS011;62194;49.480;10.986;2022-12-29T00:45:11;5.03;;;2.50;;
55350;SDS011;62194;49.480;10.986;2022-12-29T00:45:16;4.90;;;2.43;;
55350;SDS011;62194;49.480;10.986;2022-12-29T00:45:31;4.70;;;2.30;;
55350;SDS011;62194;49.480;10.986;2022-12-29T00:45:36;4.63;;;2.26;;
55350;SDS011;62194;49.480;10.986;2022-12-29T00:45:41;5.33;;;2.27;;
55350;SDS011;62194;49.480;10.986;2022-12-29T00:45:46;5.20;;;2.27;;
55350;SDS011;62194;49.480;10.986;2022-12-29T00:45:52;4.95;;;2.20;;
55350;SDS011;62194;49.480;10.986;2022-12-29T00:45:57;4.73;;;2.13;;
55350;SDS011;62194;49.480;10.986;2022-12-29T00:46:02;4.07;;;2.07;;
55350;SDS011;62194;49.480;10.986;2022-12-29T00:46:08;3.13;;;1.97;;
55350;SDS011;62194;49.480;10.986;2022-12-29T00:46:13;3.22;;;1.95;;
55350;SDS011;62194;49.480;10.986;2022-12-29T00:46:18;3.27;;;2.00;;
55350;SDS011;62194;49.480;10.986;2022-12-29T00:46:23;3.60;;;2.10;;
55350;SDS011;62194;49.480;10.986;2022-12-29T00:46:29;4.38;;;2.20;;
55350;SDS011;62194;49.480;10.986;2022-12-29T00:46:34;4.43;;;2.23;;
55350;SDS011;62194;49.480;10.986;2022-12-29T00:46:41;5.27;;;2.40;;
55350;SDS011;62194;49.480;10.986;2022-12-29T00:46:47;5.43;;;2.47;;
55350;SDS011;62194;49.480;10.986;2022-12-29T00:46:52;5.45;;;2.55;;
55350;SDS011;62194;49.480;10.986;2022-12-29T00:46:58;4.73;;;2.57;;
55350;SDS011;62194;49.480;10.986;2022-12-29T00:47:10;4.44;;;2.44;;
55350;SDS011;62194;49.480;10.986;2022-12-29T00:47:16;4.40;;;2.30;;
55350;SDS011;62194;49.480;10.986;2022-12-29T00:47:27;4.43;;;2.23;;
55350;SDS011;62194;49.480;10.986;2022-12-29T00:47:32;4.10;;;2.08;;
55350;SDS011;62194;49.480;10.986;2022-12-29T00:47:37;3.83;;;2.10;;
55350;SDS011;62194;49.480;10.986;2022-12-29T00:47:42;3.57;;;2.03;;
55350;SDS011;62194;49.480;10.986;2022-12-29T00:47:48;2.80;;;1.95;;
55350;SDS011;62194;49.480;10.986;2022-12-29T00:47:53;2.90;;;1.93;;
55350;SDS011;62194;49.480;10.986;2022-12-29T00:47:58;3.10;;;1.90;;
55350;SDS011;62194;49.480;10.986;2022-12-29T00:48:04;2.83;;;1.75;;
55350;SDS011;62194;49.480;10.986;2022-12-29T00:48:09;2.93;;;1.87;;
55350;SDS011;62194;49.480;10.986;2022-12-29T00:48:14;3.07;;;1.90;;
55350;SDS011;62194;49.480;10.986;2022-12-29T00:48:20;3.13;;;2.03;;
55350;SDS011;62194;49.480;10.986;2022-12-29T00:48:45;3.19;;;2.24;;
55350;SDS011;62194;49.480;10.986;2022-12-29T00:49:10;3.28;;;2.31;;
55350;SDS011;62194;49.480;10.986;2022-12-29T00:49:35;3.80;;;2.03;;
55350;SDS011;62194;49.480;10.986;2022-12-29T00:49:40;3.80;;;1.80;;
55350;SDS011;62194;49.480;10.986;2022-12-29T00:49:48;3.13;;;1.80;;
55350;SDS011;62194;49.480;10.986;2022-12-29T00:49:53;2.80;;;1.88;;
55350;SDS011;62194;49.480;10.986;2022-12-29T00:49:58;2.58;;;1.85;;
55350;SDS011;62194;49.480;10.986;2022-12-29T00:50:07;2.60;;;1.93;;
55350;SDS011;62194;49.480;10.986;2022-12-29T00:50:12;2.60;;;1.90;;
55350;SDS011;62194;49.480;10.986;2022-12-29T00:50:17;2.53;;;1.80;;
55350;SDS011;62194;49.480;10.986;2022-12-29T00:50:23;2.60;;;1.80;;
55350;SDS011;62194;49.480;10.986;2022-12-29T00:50:28;2.93;;;1.90;;
55350;SDS011;62194;49.480;10.986;2022-12-29T00:50:33;2.75;;;1.85;;
55350;SDS011;62194;49.480;10.986;2022-12-29T00:50:38;3.40;;;2.00;;
55350;SDS011;62194;49.480;10.986;2022-12-29T00:50:44;3.40;;;2.00;;
55350;SDS011;62194;49.480;10.986;2022-12-29T00:50:49;3.40;;;2.07;;
55350;SDS011;62194;49.480;10.986;2022-12-29T00:50:55;3.65;;;2.00;;
55350;SDS011;62194;49.480;10.986;2022-12-29T00:51:01;3.75;;;1.90;;
55350;SDS011;62194;49.480;10.986;2022-12-29T00:51:10;3.20;;;1.90;;
55350;SDS011;62194;49.480;10.986;2022-12-29T00:51:15;3.55;;;1.90;;
55350;SDS011;62194;49.480;10.986;2022-12-29T00:51:20;3.57;;;1.90;;
55350;SDS011;62194;49.480;10.986;2022-12-29T00:51:26;3.10;;;1.90;;
55350;SDS011;62194;49.480;10.986;2022-12-29T00:51:31;3.30;;;2.03;;
55350;SDS011;62194;49.480;10.986;2022-12-29T00:51:36;3.70;;;2.03;;
55350;SDS011;62194;49.480;10.986;2022-12-29T00:51:42;3.87;;;2.07;;
55350;SDS011;62194;49.480;10.986;2022-12-29T00:51:47;3.55;;;2.03;;
55350;SDS011;62194;49.480;10.986;2022-12-29T00:52:11;3.70;;;2.00;;
55350;SDS011;62194;49.480;10.986;2022-12-29T00:52:17;3.84;;;2.06;;
55350;SDS011;62194;49.480;10.986;2022-12-29T00:52:23;4.25;;;2.33;;
55350;SDS011;62194;49.480;10.986;2022-12-29T00:52:28;4.50;;;2.37;;
55350;SDS011;62194;49.480;10.986;2022-12-29T00:52:33;4.70;;;2.40;;
55350;SDS011;62194;49.480;10.986;2022-12-29T00:52:38;4.37;;;2.33;;
55350;SDS011;62194;49.480;10.986;2022-12-29T00:52:44;4.00;;;2.15;;
55350;SDS011;62194;49.480;10.986;2022-12-29T00:52:49;3.90;;;2.20;;
55350;SDS011;62194;49.480;10.986;2022-12-29T00:52:54;3.63;;;2.17;;
55350;SDS011;62194;49.480;10.986;2022-12-29T00:52:59;3.30;;;2.20;;
55350;SDS011;62194;49.480;10.986;2022-12-29T00:53:05;2.85;;;2.15;;
55350;SDS011;62194;49.480;10.986;2022-12-29T00:53:10;2.90;;;2.20;;
55350;SDS011;62194;49.480;10.986;2022-12-29T00:53:15;3.77;;;2.30;;
55350;SDS011;62194;49.480;10.986;2022-12-29T00:53:20;3.80;;;2.27;;
55350;SDS011;62194;49.480;10.986;2022-12-29T00:53:26;3.80;;;2.25;;
55350;SDS011;62194;49.480;10.986;2022-12-29T00:53:31;3.97;;;2.10;;
55350;SDS011;62194;49.480;10.986;2022-12-29T00:53:37;4.10;;;2.15;;
55350;SDS011;62194;49.480;10.986;2022-12-29T00:53:45;4.03;;;2.17;;
55350;SDS011;62194;49.480;10.986;2022-12-29T00:53:53;3.67;;;2.17;;
55350;SDS011;62194;49.480;10.986;2022-12-29T00:53:58;3.60;;;2.10;;
55350;SDS011;62194;49.480;10.986;2022-12-29T00:54:04;3.75;;;2.20;;
55350;SDS011;62194;49.480;10.986;2022-12-29T00:54:09;4.10;;;2.20;;
55350;SDS011;62194;49.480;10.986;2022-12-29T00:54:14;3.97;;;2.10;;
55350;SDS011;62194;49.480;10.986;2022-12-29T00:54:20;3.77;;;2.10;;
55350;SDS011;62194;49.480;10.986;2022-12-29T00:54:27;3.92;;;2.10;;
55350;SDS011;62194;49.480;10.986;2022-12-29T00:54:34;3.47;;;2.10;;
55350;SDS011;62194;49.480;10.986;2022-12-29T00:54:41;3.38;;;2.13;;
55350;SDS011;62194;49.480;10.986;2022-12-29T00:54:49;3.73;;;2.13;;
55350;SDS011;62194;49.480;10.986;2022-12-29T00:54:55;4.35;;;2.15;;
55350;SDS011;62194;49.480;10.986;2022-12-29T00:55:00;4.30;;;2.10;;
55350;SDS011;62194;49.480;10.986;2022-12-29T00:55:05;4.53;;;2.17;;
55350;SDS011;62194;49.480;10.986;2022-12-29T00:55:14;4.45;;;2.13;;
55350;SDS011;62194;49.480;10.986;2022-12-29T00:55:19;4.07;;;2.17;;
55350;SDS011;62194;49.480;10.986;2022-12-29T00:55:24;3.43;;;2.13;;
55350;SDS011;62194;49.480;10.986;2022-12-29T00:55:29;3.58;;;2.20;;
55350;SDS011;62194;49.480;10.986;2022-12-29T00:55:37;3.43;;;2.17;;
55350;SDS011;62194;49.480;10.986;2022-12-29T00:55:45;3.26;;;2.19;;
55350;SDS011;62194;49.480;10.986;2022-12-29T00:55:50;3.13;;;2.27;;
55350;SDS011;62194;49.480;10.986;2022-12-29T00:55:55;3.42;;;2.30;;
55350;SDS011;62194;49.480;10.986;2022-12-29T00:56:01;3.63;;;2.30;;
55350;SDS011;62194;49.480;10.986;2022-12-29T00:56:06;3.43;;;2.30;;
55350;SDS011;62194;49.480;10.986;2022-12-29T00:56:11;3.60;;;2.30;;
55350;SDS011;62194;49.480;10.986;2022-12-29T00:56:17;3.43;;;2.20;;
55350;SDS011;62194;49.480;10.986;2022-12-29T00:56:22;3.37;;;2.20;;
55350;SDS011;62194;49.480;10.986;2022-12-29T00:56:27;3.20;;;2.10;;
55350;SDS011;62194;49.480;10.986;2022-12-29T00:56:33;3.10;;;2.13;;
55350;SDS011;62194;49.480;10.986;2022-12-29T00:56:38;3.27;;;2.10;;
55350;SDS011;62194;49.480;10.986;2022-12-29T00:56:50;3.65;;;2.08;;
55350;SDS011;62194;49.480;10.986;2022-12-29T00:56:57;3.76;;;2.15;;
55350;SDS011;62194;49.480;10.986;2022-12-29T00:57:03;3.85;;;2.25;;
55350;SDS011;62194;49.480;10.986;2022-12-29T00:57:11;3.23;;;2.20;;
55350;SDS011;62194;49.480;10.986;2022-12-29T00:57:17;3.17;;;2.20;;
55350;SDS011;62194;49.480;10.986;2022-12-29T00:57:23;3.38;;;2.30;;
55350;SDS011;62194;49.480;10.986;2022-12-29T00:57:28;3.22;;;2.22;;
55350;SDS011;62194;49.480;10.986;2022-12-29T00:57:33;2.87;;;2.10;;
55350;SDS011;62194;49.480;10.986;2022-12-29T00:57:39;2.93;;;2.13;;
55350;SDS011;62194;49.480;10.986;2022-12-29T00:57:44;3.00;;;2.10;;
55350;SDS011;62194;49.480;10.986;2022-12-29T00:57:49;2.97;;;2.10;;
55350;SDS011;62194;49.480;10.986;2022-12-29T00:57:54;2.93;;;2.10;;
55350;SDS011;62194;49.480;10.986;2022-12-29T00:58:00;3.60;;;2.10;;
55350;SDS011;62194;49.480;10.986;2022-12-29T00:58:05;3.85;;;2.10;;
55350;SDS011;62194;49.480;10.986;2022-12-29T00:58:10;3.80;;;2.10;;
55350;SDS011;62194;49.480;10.986;2022-12-29T00:58:15;3.60;;;1.97;;
55350;SDS011;62194;49.480;10.986;2022-12-29T00:58:21;3.40;;;1.90;;